createdAt,value
2023-05-16T00:00:30.082Z,1.50
2023-05-16T00:05:35.415Z,1.25
2023-05-16T00:10:39.048Z,1.20
2023-05-16T00:15:42.861Z,1.30
2023-05-16T00:20:48.179Z,1.08
2023-05-16T00:25:51.820Z,1.25
2023-05-16T00:30:55.453Z,0.90
2023-05-16T00:36:00.730Z,1.20
2023-05-16T00:41:04.526Z,1.23
2023-05-16T00:46:08.199Z,1.00
2023-05-16T00:51:13.492Z,1.10
2023-05-16T00:56:18.440Z,1.10
2023-05-16T01:11:39.767Z,1.10
2023-05-16T01:16:51.596Z,1.23
2023-05-16T01:22:03.753Z,0.90
2023-05-16T01:27:11.482Z,1.17
2023-05-16T01:32:15.076Z,1.08
2023-05-16T01:37:25.180Z,0.90
2023-05-16T01:42:34.044Z,1.20
2023-05-16T01:47:43.491Z,1.00
2023-05-16T01:52:56.426Z,0.88
2023-05-16T01:58:05.122Z,0.80
2023-05-16T02:03:08.876Z,1.10
2023-05-16T02:08:13.014Z,1.13
2023-05-16T02:13:18.270Z,1.60
2023-05-16T02:18:21.875Z,1.20
2023-05-16T02:23:25.503Z,1.33
2023-05-16T02:28:30.771Z,1.23
2023-05-16T02:33:35.150Z,1.20
2023-05-16T02:38:38.749Z,1.03
2023-05-16T02:43:46.186Z,1.33
2023-05-16T02:48:50.796Z,1.45
2023-05-16T02:53:55.198Z,1.50
2023-05-16T02:59:01.076Z,1.80
2023-05-16T03:04:04.948Z,1.70
2023-05-16T03:09:08.664Z,1.40
2023-05-16T03:14:14.635Z,1.48
2023-05-16T03:19:18.457Z,1.60
2023-05-16T03:24:22.192Z,1.20
2023-05-16T03:29:27.529Z,1.20
2023-05-16T03:39:34.045Z,1.40
2023-05-16T03:44:39.303Z,1.67
2023-05-16T03:49:42.918Z,1.40
2023-05-16T03:54:46.514Z,1.48
2023-05-16T03:59:51.781Z,1.35
2023-05-16T04:04:55.403Z,1.65
2023-05-16T04:09:59.214Z,1.50
2023-05-16T04:15:04.895Z,1.58
2023-05-16T04:20:09.112Z,1.45
2023-05-16T04:25:12.753Z,1.45
2023-05-16T04:30:18.437Z,2.00
2023-05-16T04:35:22.060Z,1.50
2023-05-16T04:40:26.197Z,1.48
2023-05-16T04:45:31.411Z,1.20
2023-05-16T04:50:35.055Z,1.25
2023-05-16T04:55:38.690Z,1.27
2023-05-16T05:00:44.710Z,1.20
2023-05-16T05:05:48.329Z,1.20
2023-05-16T05:10:51.923Z,1.08
2023-05-16T05:15:58.180Z,1.35
2023-05-16T05:21:01.818Z,1.40
2023-05-16T05:26:05.836Z,1.40
2023-05-16T05:31:11.146Z,1.00
2023-05-16T05:36:14.805Z,1.10
2023-05-16T05:41:18.515Z,1.23
2023-05-16T05:46:25.559Z,1.48
2023-05-16T05:51:29.329Z,1.27
2023-05-16T05:56:32.939Z,1.02
2023-05-16T06:01:38.888Z,1.50
2023-05-16T06:06:42.557Z,1.33
2023-05-16T06:11:46.158Z,1.30
2023-05-16T06:16:51.504Z,1.40
2023-05-16T06:21:55.133Z,1.20
2023-05-16T06:26:58.691Z,1.30
2023-05-16T06:32:03.958Z,1.30
2023-05-16T06:37:07.650Z,1.30
2023-05-16T06:42:11.306Z,1.30
2023-05-16T06:47:16.853Z,1.35
2023-05-16T06:52:20.621Z,1.45
2023-05-16T06:57:24.259Z,1.20
2023-05-16T07:02:29.674Z,1.50
2023-05-16T07:07:33.439Z,1.50
2023-05-16T07:12:37.751Z,1.17
2023-05-16T07:17:43.085Z,1.13
2023-05-16T07:22:46.774Z,1.30
2023-05-16T07:27:50.414Z,1.13
2023-05-16T07:32:56.718Z,1.50
2023-05-16T07:38:00.325Z,1.52
2023-05-16T07:43:03.960Z,1.20
2023-05-16T07:48:09.315Z,1.33
2023-05-16T07:53:13.923Z,1.40
2023-05-16T07:58:17.891Z,1.30
2023-05-16T08:03:26.086Z,1.40
2023-05-16T08:08:29.901Z,1.63
2023-05-16T08:13:33.615Z,1.65
2023-05-16T08:18:39.018Z,1.40
2023-05-16T08:23:42.686Z,1.20
2023-05-16T08:28:46.340Z,1.13
2023-05-16T08:33:52.618Z,1.27
2023-05-16T08:38:56.642Z,1.30
2023-05-16T08:44:00.711Z,1.63
2023-05-16T08:49:06.998Z,1.30
2023-05-16T08:54:13.972Z,1.40
2023-05-16T08:59:19.336Z,1.40
2023-05-16T09:04:26.867Z,1.35
2023-05-16T09:09:30.625Z,1.40
2023-05-16T09:14:34.294Z,1.40
2023-05-16T09:19:44.610Z,1.80
2023-05-16T09:24:48.392Z,1.50
2023-05-16T09:29:52.749Z,1.42
2023-05-16T09:34:59.077Z,1.58
2023-05-16T09:40:04.025Z,1.30
2023-05-16T09:45:12.540Z,1.45
2023-05-16T09:50:19.469Z,1.50
2023-05-16T09:55:24.642Z,1.35
2023-05-16T10:00:31.668Z,1.63
2023-05-16T10:05:38.005Z,1.38
2023-05-16T10:10:42.156Z,1.50
2023-05-16T10:15:47.856Z,1.33
2023-05-16T10:20:56.081Z,1.58
2023-05-16T10:26:01.841Z,1.73
2023-05-16T10:31:06.652Z,1.60
2023-05-16T10:36:12.846Z,1.40
2023-05-16T10:41:17.415Z,1.48
2023-05-16T10:46:23.546Z,1.48
2023-05-16T10:51:39.112Z,1.65
2023-05-16T10:56:43.097Z,1.67
2023-05-16T11:01:52.946Z,1.20
2023-05-16T11:06:59.695Z,1.60
2023-05-16T11:12:04.080Z,2.10
2023-05-16T11:17:12.847Z,1.30
2023-05-16T11:22:29.276Z,1.30
2023-05-16T11:32:38.122Z,1.60
2023-05-16T11:37:44.855Z,1.40
2023-05-16T11:42:49.272Z,1.58
2023-05-16T11:47:53.109Z,1.42
2023-05-16T11:52:58.834Z,1.70
2023-05-16T11:58:03.028Z,1.65
2023-05-16T12:03:06.888Z,1.67
2023-05-16T12:08:12.224Z,1.70
2023-05-16T12:13:16.772Z,1.67
2023-05-16T12:18:20.754Z,1.73
2023-05-16T12:23:28.470Z,1.60
2023-05-16T12:28:33.849Z,1.80
2023-05-16T12:33:39.057Z,1.80
2023-05-16T12:38:47.908Z,1.50
2023-05-16T12:43:51.772Z,1.70
2023-05-16T12:49:03.879Z,1.73
2023-05-16T12:54:16.713Z,1.75
2023-05-16T12:59:20.511Z,1.65
2023-05-16T13:04:24.626Z,1.45
2023-05-16T13:09:32.658Z,1.77
2023-05-16T13:14:36.814Z,1.70
2023-05-16T13:19:40.504Z,2.00
2023-05-16T13:24:45.917Z,1.90
2023-05-16T13:29:49.548Z,1.80
2023-05-16T13:34:53.471Z,2.10
2023-05-16T13:39:58.881Z,2.25
2023-05-16T13:45:02.574Z,2.80
2023-05-16T13:50:07.346Z,3.15
2023-05-16T13:55:12.919Z,3.17
2023-05-16T14:00:44.519Z,4.03
2023-05-16T14:05:40.855Z,4.82
2023-05-16T14:10:46.184Z,5.07
2023-05-16T14:15:49.891Z,5.63
2023-05-16T14:20:53.589Z,5.88
2023-05-16T14:25:58.891Z,6.25
2023-05-16T14:31:02.728Z,5.07
2023-05-16T14:36:08.475Z,5.90
2023-05-16T14:46:17.008Z,5.40
2023-05-16T14:51:20.762Z,5.45
2023-05-16T14:56:26.133Z,5.53
2023-05-16T15:01:29.817Z,4.90
2023-05-16T15:06:33.504Z,5.05
2023-05-16T15:11:38.877Z,3.42
2023-05-16T15:16:43.077Z,4.07
2023-05-16T15:21:46.867Z,4.45
2023-05-16T15:26:52.190Z,3.33
2023-05-16T15:31:55.935Z,3.17
2023-05-16T15:36:59.765Z,3.50
2023-05-16T15:42:12.087Z,3.63
2023-05-16T15:47:18.856Z,3.75
2023-05-16T15:52:23.049Z,3.90
2023-05-16T15:57:28.447Z,4.07
2023-05-16T16:02:32.280Z,4.78
2023-05-16T16:07:36.041Z,4.28
2023-05-16T16:12:41.560Z,4.30
2023-05-16T16:17:45.223Z,3.90
2023-05-16T16:22:48.902Z,4.45
2023-05-16T16:27:54.693Z,3.90
2023-05-16T16:32:58.549Z,3.95
2023-05-16T16:38:06.062Z,3.67
2023-05-16T16:43:13.525Z,3.50
2023-05-16T16:48:17.186Z,4.00
2023-05-16T16:53:20.874Z,3.78
2023-05-16T16:58:26.165Z,3.45
2023-05-16T17:08:32.890Z,3.00
2023-05-16T17:13:38.251Z,3.60
2023-05-16T17:18:41.958Z,3.17
2023-05-16T17:23:45.669Z,3.15
2023-05-16T17:28:51.092Z,3.22
2023-05-16T17:33:55.602Z,2.72
2023-05-16T17:38:59.411Z,3.20
2023-05-16T17:44:04.937Z,2.88
2023-05-16T17:49:08.653Z,3.05
2023-05-16T17:54:12.454Z,3.08
2023-05-16T17:59:18.253Z,3.00
2023-05-16T18:04:22.764Z,3.00
2023-05-16T18:09:26.469Z,3.10
2023-05-16T18:14:31.941Z,3.25
2023-05-16T18:19:36.858Z,3.45
2023-05-16T18:24:40.685Z,3.30
2023-05-16T18:29:46.642Z,3.25
2023-05-16T18:34:50.507Z,2.85
2023-05-16T18:39:54.416Z,3.15
2023-05-16T18:44:59.725Z,2.65
2023-05-16T18:50:03.388Z,3.47
2023-05-16T18:55:07.773Z,3.03
2023-05-16T19:00:14.255Z,2.70
2023-05-16T19:05:18.275Z,2.80
2023-05-16T19:10:22.242Z,3.20
2023-05-16T19:15:27.803Z,3.13
2023-05-16T19:20:32.021Z,3.03
2023-05-16T19:25:35.746Z,3.00
2023-05-16T19:30:41.354Z,2.97
2023-05-16T19:35:45.174Z,3.03
2023-05-16T19:40:48.798Z,2.72
2023-05-16T19:45:54.246Z,2.75
2023-05-16T19:50:57.925Z,2.70
2023-05-16T19:56:01.881Z,2.63
2023-05-16T20:01:07.223Z,2.50
2023-05-16T20:06:10.876Z,2.60
2023-05-16T20:11:14.630Z,2.50
2023-05-16T20:16:20.047Z,2.70
2023-05-16T20:21:23.711Z,2.80
2023-05-16T20:26:27.419Z,2.42
2023-05-16T20:31:32.733Z,2.90
2023-05-16T20:36:36.497Z,2.65
2023-05-16T20:41:40.188Z,2.57
2023-05-16T20:46:46.224Z,2.50
2023-05-16T20:51:49.906Z,2.60
2023-05-16T20:56:53.605Z,2.72
2023-05-16T21:01:58.984Z,2.77
2023-05-16T21:07:02.709Z,2.70
2023-05-16T21:12:07.031Z,2.53
2023-05-16T21:17:12.407Z,2.20
2023-05-16T21:22:16.072Z,2.55
2023-05-16T21:27:19.767Z,2.53
2023-05-16T21:32:25.154Z,2.07
2023-05-16T21:37:28.855Z,2.40
2023-05-16T21:42:32.466Z,2.20
2023-05-16T21:47:37.798Z,2.30
2023-05-16T21:52:41.654Z,2.20
2023-05-16T21:57:45.287Z,2.00
2023-05-16T22:02:50.722Z,1.90
2023-05-16T22:07:54.426Z,2.28
2023-05-16T22:12:58.065Z,2.37
2023-05-16T22:18:03.511Z,2.40
2023-05-16T22:23:07.174Z,2.15
2023-05-16T22:28:10.825Z,2.17
2023-05-16T22:33:16.199Z,2.10
2023-05-16T22:38:20.006Z,2.30
2023-05-16T22:43:23.652Z,2.37
2023-05-16T22:48:29.065Z,2.20
2023-05-16T22:53:32.784Z,2.20
2023-05-16T22:58:36.529Z,2.30
2023-05-16T23:03:42.334Z,2.13
2023-05-16T23:08:46.606Z,2.30
2023-05-16T23:13:50.230Z,2.38
2023-05-16T23:18:56.316Z,2.23
2023-05-16T23:23:59.981Z,2.38
2023-05-16T23:29:03.695Z,2.10
2023-05-16T23:34:09.117Z,2.53
2023-05-16T23:39:13.005Z,2.38
2023-05-16T23:44:16.663Z,2.90
2023-05-16T23:49:22.002Z,2.97
2023-05-16T23:54:25.706Z,2.47
2023-05-16T23:59:29.362Z,2.40
